sensor_id;sensor_type;location;lat;lon;timestamp;P1;durP1;ratioP1;P2;durP2;ratioP2
67429;SDS011;54298;52.076;5.264;2024-02-15T00:00:27;9.5;;;4.41;;
67429;SDS011;54298;52.076;5.264;2024-02-15T00:02:03;9.0;;;4.1;;
67429;SDS011;54298;52.076;5.264;2024-02-15T00:05:15;6.6;;;4.1;;
67429;SDS011;54298;52.076;5.264;2024-02-15T00:06:51;13.4;;;5.2;;
67429;SDS011;54298;52.076;5.264;2024-02-15T00:08:28;13.5;;;5.7;;
67429;SDS011;54298;52.076;5.264;2024-02-15T00:11:42;8.71;;;3.9;;
67429;SDS011;54298;52.076;5.264;2024-02-15T00:13:18;9.71;;;3.9;;
67429;SDS011;54298;52.076;5.264;2024-02-15T00:14:54;7.0;;;3.8;;
67429;SDS011;54298;52.076;5.264;2024-02-15T00:18:06;8.4;;;3.9;;
67429;SDS011;54298;52.076;5.264;2024-02-15T00:19:42;10.21;;;4.61;;
67429;SDS011;54298;52.076;5.264;2024-02-15T00:21:19;12.4;;;5.4;;
67429;SDS011;54298;52.076;5.264;2024-02-15T00:22:55;9.71;;;4.2;;
67429;SDS011;54298;52.076;5.264;2024-02-15T00:26:07;7.5;;;4.3;;
67429;SDS011;54298;52.076;5.264;2024-02-15T00:27:43;6.3;;;4.0;;
67429;SDS011;54298;52.076;5.264;2024-02-15T00:29:22;8.2;;;4.0;;
67429;SDS011;54298;52.076;5.264;2024-02-15T00:32:34;5.5;;;3.5;;
67429;SDS011;54298;52.076;5.264;2024-02-15T00:34:10;7.8;;;4.1;;
67429;SDS011;54298;52.076;5.264;2024-02-15T00:35:47;8.31;;;4.2;;
67429;SDS011;54298;52.076;5.264;2024-02-15T00:38:59;10.9;;;3.8;;
67429;SDS011;54298;52.076;5.264;2024-02-15T00:40:35;8.81;;;3.4;;
67429;SDS011;54298;52.076;5.264;2024-02-15T00:42:11;5.3;;;3.1;;
67429;SDS011;54298;52.076;5.264;2024-02-15T00:45:23;10.5;;;4.41;;
67429;SDS011;54298;52.076;5.264;2024-02-15T00:46:59;11.9;;;3.3;;
67429;SDS011;54298;52.076;5.264;2024-02-15T00:48:35;7.3;;;3.6;;
67429;SDS011;54298;52.076;5.264;2024-02-15T00:50:12;8.4;;;3.9;;
67429;SDS011;54298;52.076;5.264;2024-02-15T00:53:24;8.0;;;3.2;;
67429;SDS011;54298;52.076;5.264;2024-02-15T00:55:03;5.7;;;2.9;;
67429;SDS011;54298;52.076;5.264;2024-02-15T00:56:40;7.3;;;3.1;;
67429;SDS011;54298;52.076;5.264;2024-02-15T00:59:52;7.3;;;3.1;;
67429;SDS011;54298;52.076;5.264;2024-02-15T01:01:29;6.4;;;3.4;;
67429;SDS011;54298;52.076;5.264;2024-02-15T01:03:05;6.0;;;3.5;;
67429;SDS011;54298;52.076;5.264;2024-02-15T01:06:17;7.8;;;3.1;;
67429;SDS011;54298;52.076;5.264;2024-02-15T01:07:53;5.7;;;3.1;;
67429;SDS011;54298;52.076;5.264;2024-02-15T01:09:29;5.4;;;3.0;;
67429;SDS011;54298;52.076;5.264;2024-02-15T01:11:05;8.4;;;3.3;;
67429;SDS011;54298;52.076;5.264;2024-02-15T01:14:17;10.0;;;3.4;;
67429;SDS011;54298;52.076;5.264;2024-02-15T01:15:53;8.6;;;3.3;;
67429;SDS011;54298;52.076;5.264;2024-02-15T01:17:30;5.6;;;3.1;;
67429;SDS011;54298;52.076;5.264;2024-02-15T01:20:42;8.2;;;3.8;;
67429;SDS011;54298;52.076;5.264;2024-02-15T01:22:18;8.1;;;3.5;;
67429;SDS011;54298;52.076;5.264;2024-02-15T01:23:54;7.1;;;3.4;;
67429;SDS011;54298;52.076;5.264;2024-02-15T01:27:06;7.4;;;3.7;;
67429;SDS011;54298;52.076;5.264;2024-02-15T01:28:43;7.5;;;3.9;;
67429;SDS011;54298;52.076;5.264;2024-02-15T01:30:19;13.2;;;5.11;;
67429;SDS011;54298;52.076;5.264;2024-02-15T01:33:31;10.3;;;4.91;;
67429;SDS011;54298;52.076;5.264;2024-02-15T01:35:07;10.5;;;4.5;;
67429;SDS011;54298;52.076;5.264;2024-02-15T01:36:46;9.5;;;6.0;;
67429;SDS011;54298;52.076;5.264;2024-02-15T01:38:23;8.81;;;5.2;;
67429;SDS011;54298;52.076;5.264;2024-02-15T01:41:46;13.5;;;6.3;;
67429;SDS011;54298;52.076;5.264;2024-02-15T01:43:22;11.4;;;5.11;;
67429;SDS011;54298;52.076;5.264;2024-02-15T01:44:59;12.7;;;6.9;;
67429;SDS011;54298;52.076;5.264;2024-02-15T01:46:35;12.4;;;7.0;;
67429;SDS011;54298;52.076;5.264;2024-02-15T01:49:47;15.6;;;7.4;;
67429;SDS011;54298;52.076;5.264;2024-02-15T01:51:23;12.0;;;6.5;;
67429;SDS011;54298;52.076;5.264;2024-02-15T01:53:02;11.7;;;6.9;;
67429;SDS011;54298;52.076;5.264;2024-02-15T01:56:18;12.8;;;7.3;;
67429;SDS011;54298;52.076;5.264;2024-02-15T01:57:56;12.3;;;6.7;;
67429;SDS011;54298;52.076;5.264;2024-02-15T01:59:32;11.0;;;6.6;;
67429;SDS011;54298;52.076;5.264;2024-02-15T02:02:44;9.81;;;7.0;;
67429;SDS011;54298;52.076;5.264;2024-02-15T02:04:21;12.4;;;6.9;;
67429;SDS011;54298;52.076;5.264;2024-02-15T02:05:57;13.4;;;7.2;;
67429;SDS011;54298;52.076;5.264;2024-02-15T02:07:34;10.9;;;6.5;;
67429;SDS011;54298;52.076;5.264;2024-02-15T02:10:48;16.11;;;6.6;;
67429;SDS011;54298;52.076;5.264;2024-02-15T02:12:26;14.1;;;6.7;;
67429;SDS011;54298;52.076;5.264;2024-02-15T02:14:02;12.0;;;6.3;;
67429;SDS011;54298;52.076;5.264;2024-02-15T02:17:14;8.9;;;5.6;;
67429;SDS011;54298;52.076;5.264;2024-02-15T02:18:50;11.1;;;6.1;;
67429;SDS011;54298;52.076;5.264;2024-02-15T02:20:26;17.0;;;5.7;;
67429;SDS011;54298;52.076;5.264;2024-02-15T02:23:39;10.21;;;5.3;;
67429;SDS011;54298;52.076;5.264;2024-02-15T02:25:15;13.1;;;5.11;;
67429;SDS011;54298;52.076;5.264;2024-02-15T02:26:52;10.1;;;5.8;;
67429;SDS011;54298;52.076;5.264;2024-02-15T02:28:28;10.1;;;5.11;;
67429;SDS011;54298;52.076;5.264;2024-02-15T02:31:47;10.4;;;5.11;;
67429;SDS011;54298;52.076;5.264;2024-02-15T02:33:23;10.7;;;5.11;;
67429;SDS011;54298;52.076;5.264;2024-02-15T02:34:59;11.9;;;5.4;;
67429;SDS011;54298;52.076;5.264;2024-02-15T02:38:12;10.9;;;4.61;;
67429;SDS011;54298;52.076;5.264;2024-02-15T02:39:49;8.31;;;5.11;;
67429;SDS011;54298;52.076;5.264;2024-02-15T02:41:25;9.5;;;5.2;;
67429;SDS011;54298;52.076;5.264;2024-02-15T02:44:37;9.21;;;4.8;;
67429;SDS011;54298;52.076;5.264;2024-02-15T02:46:13;9.5;;;5.2;;
67429;SDS011;54298;52.076;5.264;2024-02-15T02:47:49;10.7;;;4.7;;
67429;SDS011;54298;52.076;5.264;2024-02-15T02:49:25;6.1;;;4.2;;
67429;SDS011;54298;52.076;5.264;2024-02-15T02:52:39;11.3;;;5.11;;
67429;SDS011;54298;52.076;5.264;2024-02-15T02:54:15;7.2;;;4.61;;
67429;SDS011;54298;52.076;5.264;2024-02-15T02:55:51;10.6;;;4.41;;
67429;SDS011;54298;52.076;5.264;2024-02-15T02:59:06;9.5;;;4.1;;
67429;SDS011;54298;52.076;5.264;2024-02-15T03:00:42;9.9;;;4.8;;
67429;SDS011;54298;52.076;5.264;2024-02-15T03:02:18;13.7;;;4.7;;
67429;SDS011;54298;52.076;5.264;2024-02-15T03:05:32;9.4;;;5.0;;
67429;SDS011;54298;52.076;5.264;2024-02-15T03:07:08;8.9;;;4.7;;
67429;SDS011;54298;52.076;5.264;2024-02-15T03:08:44;9.1;;;4.2;;
67429;SDS011;54298;52.076;5.264;2024-02-15T03:10:20;8.5;;;4.2;;
67429;SDS011;54298;52.076;5.264;2024-02-15T03:13:32;10.9;;;4.3;;
67429;SDS011;54298;52.076;5.264;2024-02-15T03:15:09;8.71;;;4.0;;
67429;SDS011;54298;52.076;5.264;2024-02-15T03:16:44;13.2;;;4.61;;
67429;SDS011;54298;52.076;5.264;2024-02-15T03:19:57;10.4;;;4.3;;
67429;SDS011;54298;52.076;5.264;2024-02-15T03:21:33;10.6;;;4.61;;
67429;SDS011;54298;52.076;5.264;2024-02-15T03:23:09;7.4;;;3.8;;
67429;SDS011;54298;52.076;5.264;2024-02-15T03:26:28;10.0;;;4.61;;
67429;SDS011;54298;52.076;5.264;2024-02-15T03:28:05;5.6;;;3.5;;
67429;SDS011;54298;52.076;5.264;2024-02-15T03:29:41;12.0;;;4.1;;
67429;SDS011;54298;52.076;5.264;2024-02-15T03:31:17;15.1;;;4.61;;
67429;SDS011;54298;52.076;5.264;2024-02-15T03:34:34;7.1;;;3.8;;
67429;SDS011;54298;52.076;5.264;2024-02-15T03:36:10;9.4;;;4.1;;
67429;SDS011;54298;52.076;5.264;2024-02-15T03:37:46;8.2;;;4.41;;
67429;SDS011;54298;52.076;5.264;2024-02-15T03:40:58;9.21;;;4.2;;
67429;SDS011;54298;52.076;5.264;2024-02-15T03:42:34;7.4;;;3.4;;
67429;SDS011;54298;52.076;5.264;2024-02-15T03:44:11;9.6;;;4.3;;
67429;SDS011;54298;52.076;5.264;2024-02-15T03:47:24;7.5;;;4.0;;
67429;SDS011;54298;52.076;5.264;2024-02-15T03:49:00;8.31;;;3.8;;
67429;SDS011;54298;52.076;5.264;2024-02-15T03:50:36;11.3;;;3.8;;
67429;SDS011;54298;52.076;5.264;2024-02-15T03:52:12;10.6;;;4.7;;
67429;SDS011;54298;52.076;5.264;2024-02-15T03:55:24;10.3;;;4.2;;
67429;SDS011;54298;52.076;5.264;2024-02-15T03:57:00;12.3;;;4.2;;
67429;SDS011;54298;52.076;5.264;2024-02-15T03:58:37;11.0;;;4.1;;
67429;SDS011;54298;52.076;5.264;2024-02-15T04:01:51;10.21;;;4.5;;
67429;SDS011;54298;52.076;5.264;2024-02-15T04:03:27;15.7;;;4.8;;
67429;SDS011;54298;52.076;5.264;2024-02-15T04:05:03;9.0;;;4.61;;
67429;SDS011;54298;52.076;5.264;2024-02-15T04:08:15;11.9;;;4.5;;
67429;SDS011;54298;52.076;5.264;2024-02-15T04:09:51;9.21;;;3.7;;
67429;SDS011;54298;52.076;5.264;2024-02-15T04:11:27;10.0;;;4.1;;
67429;SDS011;54298;52.076;5.264;2024-02-15T04:13:03;9.71;;;4.2;;
67429;SDS011;54298;52.076;5.264;2024-02-15T04:16:15;9.31;;;5.11;;
67429;SDS011;54298;52.076;5.264;2024-02-15T04:17:52;13.3;;;4.1;;
67429;SDS011;54298;52.076;5.264;2024-02-15T04:19:28;14.0;;;5.11;;
67429;SDS011;54298;52.076;5.264;2024-02-15T04:22:40;7.3;;;4.2;;
67429;SDS011;54298;52.076;5.264;2024-02-15T04:24:16;6.4;;;3.8;;
67429;SDS011;54298;52.076;5.264;2024-02-15T04:25:52;9.1;;;4.5;;
67429;SDS011;54298;52.076;5.264;2024-02-15T04:29:05;13.1;;;4.2;;
67429;SDS011;54298;52.076;5.264;2024-02-15T04:30:41;14.9;;;4.41;;
67429;SDS011;54298;52.076;5.264;2024-02-15T04:32:17;10.8;;;3.9;;
67429;SDS011;54298;52.076;5.264;2024-02-15T04:35:29;9.1;;;4.41;;
67429;SDS011;54298;52.076;5.264;2024-02-15T04:37:05;10.9;;;3.9;;
67429;SDS011;54298;52.076;5.264;2024-02-15T04:38:41;9.1;;;3.8;;
67429;SDS011;54298;52.076;5.264;2024-02-15T04:40:17;8.4;;;4.61;;
67429;SDS011;54298;52.076;5.264;2024-02-15T04:43:29;13.8;;;4.41;;
67429;SDS011;54298;52.076;5.264;2024-02-15T04:45:06;9.9;;;4.1;;
67429;SDS011;54298;52.076;5.264;2024-02-15T04:46:43;10.4;;;4.41;;
67429;SDS011;54298;52.076;5.264;2024-02-15T04:49:55;10.0;;;4.2;;
67429;SDS011;54298;52.076;5.264;2024-02-15T04:51:31;9.4;;;3.8;;
67429;SDS011;54298;52.076;5.264;2024-02-15T04:53:07;12.7;;;4.91;;
67429;SDS011;54298;52.076;5.264;2024-02-15T04:56:23;6.8;;;3.5;;
67429;SDS011;54298;52.076;5.264;2024-02-15T04:57:59;11.2;;;5.2;;
67429;SDS011;54298;52.076;5.264;2024-02-15T04:59:35;8.2;;;4.0;;
67429;SDS011;54298;52.076;5.264;2024-02-15T05:01:12;9.81;;;3.9;;
67429;SDS011;54298;52.076;5.264;2024-02-15T05:04:25;15.1;;;3.9;;
67429;SDS011;54298;52.076;5.264;2024-02-15T05:06:01;8.4;;;3.7;;
67429;SDS011;54298;52.076;5.264;2024-02-15T05:07:37;8.4;;;3.7;;
67429;SDS011;54298;52.076;5.264;2024-02-15T05:10:49;7.7;;;4.2;;
67429;SDS011;54298;52.076;5.264;2024-02-15T05:12:26;8.2;;;4.61;;
67429;SDS011;54298;52.076;5.264;2024-02-15T05:14:02;11.8;;;4.61;;
67429;SDS011;54298;52.076;5.264;2024-02-15T05:17:14;12.5;;;5.4;;
67429;SDS011;54298;52.076;5.264;2024-02-15T05:18:50;16.3;;;7.4;;
67429;SDS011;54298;52.076;5.264;2024-02-15T05:20:26;13.9;;;5.9;;
67429;SDS011;54298;52.076;5.264;2024-02-15T05:22:02;8.1;;;4.41;;
67429;SDS011;54298;52.076;5.264;2024-02-15T05:25:14;9.0;;;4.41;;
67429;SDS011;54298;52.076;5.264;2024-02-15T05:26:51;7.9;;;4.3;;
67429;SDS011;54298;52.076;5.264;2024-02-15T05:28:27;11.7;;;4.5;;
67429;SDS011;54298;52.076;5.264;2024-02-15T05:31:40;10.4;;;4.3;;
67429;SDS011;54298;52.076;5.264;2024-02-15T05:33:17;6.8;;;4.2;;
67429;SDS011;54298;52.076;5.264;2024-02-15T05:34:53;10.9;;;4.91;;
67429;SDS011;54298;52.076;5.264;2024-02-15T05:38:05;8.1;;;4.3;;
67429;SDS011;54298;52.076;5.264;2024-02-15T05:39:41;7.1;;;4.1;;
67429;SDS011;54298;52.076;5.264;2024-02-15T05:41:21;7.3;;;4.5;;
67429;SDS011;54298;52.076;5.264;2024-02-15T05:42:57;13.7;;;4.41;;
67429;SDS011;54298;52.076;5.264;2024-02-15T05:46:09;9.71;;;4.0;;
67429;SDS011;54298;52.076;5.264;2024-02-15T05:47:46;7.2;;;4.3;;
67429;SDS011;54298;52.076;5.264;2024-02-15T05:49:22;11.3;;;4.2;;
67429;SDS011;54298;52.076;5.264;2024-02-15T05:52:37;8.1;;;4.1;;
67429;SDS011;54298;52.076;5.264;2024-02-15T05:54:13;9.4;;;4.5;;
67429;SDS011;54298;52.076;5.264;2024-02-15T05:55:50;7.7;;;3.9;;
67429;SDS011;54298;52.076;5.264;2024-02-15T05:59:02;8.31;;;4.2;;
67429;SDS011;54298;52.076;5.264;2024-02-15T06:00:38;6.8;;;3.8;;
67429;SDS011;54298;52.076;5.264;2024-02-15T06:02:14;9.9;;;4.0;;
67429;SDS011;54298;52.076;5.264;2024-02-15T06:05:26;6.8;;;3.4;;
67429;SDS011;54298;52.076;5.264;2024-02-15T06:07:03;8.6;;;3.2;;
67429;SDS011;54298;52.076;5.264;2024-02-15T06:08:38;9.0;;;4.41;;
67429;SDS011;54298;52.076;5.264;2024-02-15T06:10:15;10.21;;;4.91;;
67429;SDS011;54298;52.076;5.264;2024-02-15T06:13:27;6.9;;;3.8;;
67429;SDS011;54298;52.076;5.264;2024-02-15T06:15:07;10.9;;;3.7;;
67429;SDS011;54298;52.076;5.264;2024-02-15T06:16:43;8.4;;;4.2;;
67429;SDS011;54298;52.076;5.264;2024-02-15T06:19:56;6.7;;;3.7;;
67429;SDS011;54298;52.076;5.264;2024-02-15T06:21:32;8.0;;;3.8;;
67429;SDS011;54298;52.076;5.264;2024-02-15T06:23:08;5.6;;;3.1;;
67429;SDS011;54298;52.076;5.264;2024-02-15T06:26:21;5.9;;;3.9;;
67429;SDS011;54298;52.076;5.264;2024-02-15T06:27:57;7.1;;;3.5;;
67429;SDS011;54298;52.076;5.264;2024-02-15T06:29:33;12.0;;;3.8;;
67429;SDS011;54298;52.076;5.264;2024-02-15T06:31:09;5.8;;;3.5;;
67429;SDS011;54298;52.076;5.264;2024-02-15T06:34:22;6.1;;;3.2;;
67429;SDS011;54298;52.076;5.264;2024-02-15T06:35:58;8.6;;;3.5;;
67429;SDS011;54298;52.076;5.264;2024-02-15T06:37:35;7.5;;;4.1;;
67429;SDS011;54298;52.076;5.264;2024-02-15T06:40:48;10.8;;;4.91;;
67429;SDS011;54298;52.076;5.264;2024-02-15T06:42:24;8.81;;;3.5;;
67429;SDS011;54298;52.076;5.264;2024-02-15T06:44:00;9.71;;;4.8;;
67429;SDS011;54298;52.076;5.264;2024-02-15T06:47:12;17.5;;;7.9;;
67429;SDS011;54298;52.076;5.264;2024-02-15T06:48:49;8.71;;;4.41;;
67429;SDS011;54298;52.076;5.264;2024-02-15T06:50:25;11.9;;;5.0;;
67429;SDS011;54298;52.076;5.264;2024-02-15T06:52:01;11.4;;;4.2;;
67429;SDS011;54298;52.076;5.264;2024-02-15T06:55:14;9.21;;;4.5;;
67429;SDS011;54298;52.076;5.264;2024-02-15T06:56:51;10.21;;;5.3;;
67429;SDS011;54298;52.076;5.264;2024-02-15T06:58:27;9.81;;;4.7;;
67429;SDS011;54298;52.076;5.264;2024-02-15T07:01:40;6.6;;;4.0;;
67429;SDS011;54298;52.076;5.264;2024-02-15T07:03:16;6.2;;;3.7;;
67429;SDS011;54298;52.076;5.264;2024-02-15T07:04:52;10.7;;;5.2;;
67429;SDS011;54298;52.076;5.264;2024-02-15T07:08:05;8.0;;;4.61;;
67429;SDS011;54298;52.076;5.264;2024-02-15T07:09:41;11.3;;;6.0;;
67429;SDS011;54298;52.076;5.264;2024-02-15T07:11:18;10.21;;;5.8;;
67429;SDS011;54298;52.076;5.264;2024-02-15T07:12:54;9.1;;;5.7;;
67429;SDS011;54298;52.076;5.264;2024-02-15T07:16:06;5.7;;;3.5;;
67429;SDS011;54298;52.076;5.264;2024-02-15T07:17:43;5.0;;;3.1;;
67429;SDS011;54298;52.076;5.264;2024-02-15T07:19:19;5.4;;;3.2;;
67429;SDS011;54298;52.076;5.264;2024-02-15T07:22:31;6.3;;;3.6;;
67429;SDS011;54298;52.076;5.264;2024-02-15T07:24:08;5.11;;;3.2;;
67429;SDS011;54298;52.076;5.264;2024-02-15T07:25:43;13.2;;;3.5;;
67429;SDS011;54298;52.076;5.264;2024-02-15T07:28:56;5.2;;;3.4;;
67429;SDS011;54298;52.076;5.264;2024-02-15T07:30:32;6.2;;;3.1;;
67429;SDS011;54298;52.076;5.264;2024-02-15T07:32:08;7.1;;;3.5;;
67429;SDS011;54298;52.076;5.264;2024-02-15T07:35:20;4.8;;;3.0;;
67429;SDS011;54298;52.076;5.264;2024-02-15T07:36:56;7.6;;;3.8;;
67429;SDS011;54298;52.076;5.264;2024-02-15T07:38:32;7.1;;;3.8;;
67429;SDS011;54298;52.076;5.264;2024-02-15T07:40:09;6.9;;;3.7;;
67429;SDS011;54298;52.076;5.264;2024-02-15T07:43:21;7.8;;;4.3;;
67429;SDS011;54298;52.076;5.264;2024-02-15T07:45:01;7.3;;;4.2;;
67429;SDS011;54298;52.076;5.264;2024-02-15T07:46:37;8.4;;;5.2;;
67429;SDS011;54298;52.076;5.264;2024-02-15T07:49:49;4.7;;;2.7;;
67429;SDS011;54298;52.076;5.264;2024-02-15T07:51:25;5.9;;;3.3;;
67429;SDS011;54298;52.076;5.264;2024-02-15T07:53:01;4.91;;;3.2;;
67429;SDS011;54298;52.076;5.264;2024-02-15T07:56:17;4.2;;;3.0;;
67429;SDS011;54298;52.076;5.264;2024-02-15T07:57:53;6.3;;;3.3;;
67429;SDS011;54298;52.076;5.264;2024-02-15T07:59:29;4.3;;;2.5;;
67429;SDS011;54298;52.076;5.264;2024-02-15T08:01:06;5.4;;;2.9;;
67429;SDS011;54298;52.076;5.264;2024-02-15T08:04:19;5.6;;;2.7;;
67429;SDS011;54298;52.076;5.264;2024-02-15T08:05:55;5.5;;;3.0;;
67429;SDS011;54298;52.076;5.264;2024-02-15T08:07:31;9.0;;;4.2;;
67429;SDS011;54298;52.076;5.264;2024-02-15T08:10:43;8.31;;;4.41;;
67429;SDS011;54298;52.076;5.264;2024-02-15T08:12:19;6.5;;;3.2;;
67429;SDS011;54298;52.076;5.264;2024-02-15T08:13:55;6.5;;;2.8;;
67429;SDS011;54298;52.076;5.264;2024-02-15T08:17:08;12.9;;;4.7;;
67429;SDS011;54298;52.076;5.264;2024-02-15T08:18:45;4.8;;;3.7;;
67429;SDS011;54298;52.076;5.264;2024-02-15T08:20:21;5.11;;;2.7;;
67429;SDS011;54298;52.076;5.264;2024-02-15T08:21:57;3.6;;;2.31;;
67429;SDS011;54298;52.076;5.264;2024-02-15T08:25:14;5.11;;;3.0;;
67429;SDS011;54298;52.076;5.264;2024-02-15T08:26:50;3.8;;;2.5;;
67429;SDS011;54298;52.076;5.264;2024-02-15T08:28:26;6.8;;;2.1;;
67429;SDS011;54298;52.076;5.264;2024-02-15T08:31:40;3.9;;;2.31;;
67429;SDS011;54298;52.076;5.264;2024-02-15T08:33:17;3.8;;;2.5;;
67429;SDS011;54298;52.076;5.264;2024-02-15T08:34:53;10.5;;;4.2;;
67429;SDS011;54298;52.076;5.264;2024-02-15T08:38:05;4.0;;;2.1;;
67429;SDS011;54298;52.076;5.264;2024-02-15T08:39:41;3.5;;;2.31;;
67429;SDS011;54298;52.076;5.264;2024-02-15T08:41:17;4.41;;;2.5;;
67429;SDS011;54298;52.076;5.264;2024-02-15T08:42:53;4.0;;;2.8;;
67429;SDS011;54298;52.076;5.264;2024-02-15T08:46:05;5.3;;;3.0;;
67429;SDS011;54298;52.076;5.264;2024-02-15T08:47:42;7.6;;;3.5;;
67429;SDS011;54298;52.076;5.264;2024-02-15T08:52:34;7.4;;;3.2;;
67429;SDS011;54298;52.076;5.264;2024-02-15T08:54:10;5.4;;;2.4;;
67429;SDS011;54298;52.076;5.264;2024-02-15T08:55:47;4.5;;;2.8;;
67429;SDS011;54298;52.076;5.264;2024-02-15T08:58:59;5.5;;;2.9;;
67429;SDS011;54298;52.076;5.264;2024-02-15T09:00:35;4.8;;;2.9;;
67429;SDS011;54298;52.076;5.264;2024-02-15T09:02:11;7.2;;;4.0;;
67429;SDS011;54298;52.076;5.264;2024-02-15T09:03:51;6.4;;;3.1;;
67429;SDS011;54298;52.076;5.264;2024-02-15T09:07:03;6.7;;;3.0;;
67429;SDS011;54298;52.076;5.264;2024-02-15T09:08:39;4.0;;;2.1;;
67429;SDS011;54298;52.076;5.264;2024-02-15T09:10:15;6.4;;;2.9;;
67429;SDS011;54298;52.076;5.264;2024-02-15T09:13:28;8.2;;;2.1;;
67429;SDS011;54298;52.076;5.264;2024-02-15T09:15:05;5.7;;;2.4;;
67429;SDS011;54298;52.076;5.264;2024-02-15T09:16:41;5.0;;;2.4;;
67429;SDS011;54298;52.076;5.264;2024-02-15T09:19:53;12.0;;;5.11;;
67429;SDS011;54298;52.076;5.264;2024-02-15T09:21:30;6.2;;;2.7;;
67429;SDS011;54298;52.076;5.264;2024-02-15T09:23:06;5.9;;;3.0;;
67429;SDS011;54298;52.076;5.264;2024-02-15T09:24:42;6.3;;;3.3;;
67429;SDS011;54298;52.076;5.264;2024-02-15T09:27:54;8.81;;;4.41;;
67429;SDS011;54298;52.076;5.264;2024-02-15T09:29:30;7.1;;;2.9;;
67429;SDS011;54298;52.076;5.264;2024-02-15T09:31:06;3.6;;;2.31;;
67429;SDS011;54298;52.076;5.264;2024-02-15T09:34:19;5.0;;;2.31;;
67429;SDS011;54298;52.076;5.264;2024-02-15T09:35:55;3.7;;;2.21;;
67429;SDS011;54298;52.076;5.264;2024-02-15T09:37:32;5.2;;;2.8;;
67429;SDS011;54298;52.076;5.264;2024-02-15T09:40:44;5.8;;;3.2;;
67429;SDS011;54298;52.076;5.264;2024-02-15T09:42:24;4.7;;;2.5;;
67429;SDS011;54298;52.076;5.264;2024-02-15T09:44:00;4.91;;;2.7;;
67429;SDS011;54298;52.076;5.264;2024-02-15T09:45:36;4.2;;;2.31;;
67429;SDS011;54298;52.076;5.264;2024-02-15T09:48:55;4.7;;;2.6;;
67429;SDS011;54298;52.076;5.264;2024-02-15T09:50:31;6.0;;;2.1;;
67429;SDS011;54298;52.076;5.264;2024-02-15T09:55:23;7.6;;;3.4;;
67429;SDS011;54298;52.076;5.264;2024-02-15T09:57:01;4.8;;;2.21;;
67429;SDS011;54298;52.076;5.264;2024-02-15T09:58:38;4.61;;;2.1;;
67429;SDS011;54298;52.076;5.264;2024-02-15T10:01:54;6.4;;;2.5;;
67429;SDS011;54298;52.076;5.264;2024-02-15T10:03:34;9.0;;;3.1;;
67429;SDS011;54298;52.076;5.264;2024-02-15T10:05:13;13.8;;;2.9;;
67429;SDS011;54298;52.076;5.264;2024-02-15T10:06:49;7.0;;;3.3;;
67429;SDS011;54298;52.076;5.264;2024-02-15T10:10:13;5.0;;;1.9;;
67429;SDS011;54298;52.076;5.264;2024-02-15T10:11:53;7.2;;;2.9;;
67429;SDS011;54298;52.076;5.264;2024-02-15T10:13:30;4.8;;;2.4;;
67429;SDS011;54298;52.076;5.264;2024-02-15T10:15:06;7.3;;;3.1;;
67429;SDS011;54298;52.076;5.264;2024-02-15T10:18:19;5.7;;;2.6;;
67429;SDS011;54298;52.076;5.264;2024-02-15T10:20:03;6.3;;;2.31;;
67429;SDS011;54298;52.076;5.264;2024-02-15T10:21:41;5.9;;;2.21;;
67429;SDS011;54298;52.076;5.264;2024-02-15T10:23:17;12.9;;;3.0;;
67429;SDS011;54298;52.076;5.264;2024-02-15T10:26:46;8.1;;;2.4;;
67429;SDS011;54298;52.076;5.264;2024-02-15T10:28:24;5.4;;;2.4;;
67429;SDS011;54298;52.076;5.264;2024-02-15T10:30:04;4.41;;;2.8;;
67429;SDS011;54298;52.076;5.264;2024-02-15T10:31:52;7.2;;;2.4;;
67429;SDS011;54298;52.076;5.264;2024-02-15T10:35:06;6.2;;;2.31;;
67429;SDS011;54298;52.076;5.264;2024-02-15T10:36:42;4.7;;;2.4;;
67429;SDS011;54298;52.076;5.264;2024-02-15T10:38:19;5.0;;;2.1;;
67429;SDS011;54298;52.076;5.264;2024-02-15T10:40:04;3.9;;;2.21;;
67429;SDS011;54298;52.076;5.264;2024-02-15T10:43:18;6.4;;;1.9;;
67429;SDS011;54298;52.076;5.264;2024-02-15T10:44:55;8.31;;;2.4;;
67429;SDS011;54298;52.076;5.264;2024-02-15T10:46:33;5.4;;;2.31;;
67429;SDS011;54298;52.076;5.264;2024-02-15T10:49:45;5.11;;;2.4;;
67429;SDS011;54298;52.076;5.264;2024-02-15T10:51:21;6.6;;;3.0;;
67429;SDS011;54298;52.076;5.264;2024-02-15T10:53:00;11.8;;;3.6;;
67429;SDS011;54298;52.076;5.264;2024-02-15T10:54:56;7.3;;;3.1;;
67429;SDS011;54298;52.076;5.264;2024-02-15T10:58:19;7.7;;;2.8;;
67429;SDS011;54298;52.076;5.264;2024-02-15T10:59:58;9.31;;;2.9;;
67429;SDS011;54298;52.076;5.264;2024-02-15T11:01:35;5.9;;;3.2;;
67429;SDS011;54298;52.076;5.264;2024-02-15T11:03:14;5.5;;;2.7;;
67429;SDS011;54298;52.076;5.264;2024-02-15T11:06:42;5.4;;;2.5;;
67429;SDS011;54298;52.076;5.264;2024-02-15T11:08:18;6.4;;;2.7;;
67429;SDS011;54298;52.076;5.264;2024-02-15T11:09:55;7.0;;;2.9;;
67429;SDS011;54298;52.076;5.264;2024-02-15T11:11:32;7.8;;;3.6;;
67429;SDS011;54298;52.076;5.264;2024-02-15T11:14:45;6.4;;;2.9;;
67429;SDS011;54298;52.076;5.264;2024-02-15T11:16:39;5.9;;;2.8;;
67429;SDS011;54298;52.076;5.264;2024-02-15T11:18:41;7.2;;;2.8;;
67429;SDS011;54298;52.076;5.264;2024-02-15T11:20:56;6.6;;;2.6;;
67429;SDS011;54298;52.076;5.264;2024-02-15T11:22:32;7.0;;;2.9;;
67429;SDS011;54298;52.076;5.264;2024-02-15T11:24:24;5.3;;;2.5;;
67429;SDS011;54298;52.076;5.264;2024-02-15T11:26:01;7.7;;;3.1;;
67429;SDS011;54298;52.076;5.264;2024-02-15T11:30:15;5.8;;;3.5;;
67429;SDS011;54298;52.076;5.264;2024-02-15T11:32:07;14.1;;;3.3;;
67429;SDS011;54298;52.076;5.264;2024-02-15T11:33:43;4.7;;;3.0;;
67429;SDS011;54298;52.076;5.264;2024-02-15T11:35:19;7.4;;;3.1;;
67429;SDS011;54298;52.076;5.264;2024-02-15T11:36:57;8.4;;;3.6;;
67429;SDS011;54298;52.076;5.264;2024-02-15T11:38:33;10.7;;;4.41;;
67429;SDS011;54298;52.076;5.264;2024-02-15T11:41:53;9.9;;;4.5;;
67429;SDS011;54298;52.076;5.264;2024-02-15T11:44:01;9.4;;;4.2;;
67429;SDS011;54298;52.076;5.264;2024-02-15T11:45:37;6.8;;;3.3;;
67429;SDS011;54298;52.076;5.264;2024-02-15T11:47:16;7.8;;;3.6;;
67429;SDS011;54298;52.076;5.264;2024-02-15T11:50:33;7.0;;;3.6;;
67429;SDS011;54298;52.076;5.264;2024-02-15T11:52:10;6.8;;;3.5;;
67429;SDS011;54298;52.076;5.264;2024-02-15T11:53:57;10.1;;;4.0;;
67429;SDS011;54298;52.076;5.264;2024-02-15T11:55:33;5.6;;;3.1;;
67429;SDS011;54298;52.076;5.264;2024-02-15T11:59:00;5.4;;;3.1;;
67429;SDS011;54298;52.076;5.264;2024-02-15T12:00:37;5.7;;;2.7;;
67429;SDS011;54298;52.076;5.264;2024-02-15T12:02:14;7.4;;;3.6;;
67429;SDS011;54298;52.076;5.264;2024-02-15T12:03:52;8.4;;;2.7;;
67429;SDS011;54298;52.076;5.264;2024-02-15T12:07:04;8.31;;;3.2;;
67429;SDS011;54298;52.076;5.264;2024-02-15T12:08:43;4.8;;;2.7;;
67429;SDS011;54298;52.076;5.264;2024-02-15T12:10:20;5.5;;;2.6;;
67429;SDS011;54298;52.076;5.264;2024-02-15T12:13:34;5.8;;;2.8;;
67429;SDS011;54298;52.076;5.264;2024-02-15T12:15:10;6.9;;;2.9;;
67429;SDS011;54298;52.076;5.264;2024-02-15T12:16:46;4.1;;;2.31;;
67429;SDS011;54298;52.076;5.264;2024-02-15T12:18:21;6.9;;;2.6;;
67429;SDS011;54298;52.076;5.264;2024-02-15T12:21:36;9.81;;;3.2;;
67429;SDS011;54298;52.076;5.264;2024-02-15T12:23:14;5.11;;;2.9;;
67429;SDS011;54298;52.076;5.264;2024-02-15T12:24:53;6.7;;;2.8;;
67429;SDS011;54298;52.076;5.264;2024-02-15T12:28:07;6.1;;;3.0;;
67429;SDS011;54298;52.076;5.264;2024-02-15T12:29:43;10.21;;;2.6;;
67429;SDS011;54298;52.076;5.264;2024-02-15T12:31:19;4.41;;;2.4;;
67429;SDS011;54298;52.076;5.264;2024-02-15T12:34:45;5.5;;;2.8;;
67429;SDS011;54298;52.076;5.264;2024-02-15T12:36:21;5.0;;;2.7;;
67429;SDS011;54298;52.076;5.264;2024-02-15T12:38:00;6.2;;;2.9;;
67429;SDS011;54298;52.076;5.264;2024-02-15T12:39:38;5.2;;;2.5;;
67429;SDS011;54298;52.076;5.264;2024-02-15T12:42:55;7.5;;;3.1;;
67429;SDS011;54298;52.076;5.264;2024-02-15T12:44:31;5.9;;;2.4;;
67429;SDS011;54298;52.076;5.264;2024-02-15T12:46:07;5.2;;;2.31;;
67429;SDS011;54298;52.076;5.264;2024-02-15T12:47:44;7.6;;;3.1;;
67429;SDS011;54298;52.076;5.264;2024-02-15T12:51:12;5.4;;;2.6;;
67429;SDS011;54298;52.076;5.264;2024-02-15T12:52:49;4.3;;;2.6;;
67429;SDS011;54298;52.076;5.264;2024-02-15T12:54:26;7.6;;;3.0;;
67429;SDS011;54298;52.076;5.264;2024-02-15T12:56:05;7.6;;;2.7;;